sensor_id;sensor_type;location;lat;lon;timestamp;pressure;altitude;pressure_sealevel;temperature;humidity
18765;BME280;9511;54.242;12.448;2023-08-06T03:05:57;100668.66;;;13.24;100.00
18765;BME280;9511;54.242;12.448;2023-08-06T03:08:34;100658.03;;;13.24;100.00
18765;BME280;9511;54.242;12.448;2023-08-06T03:11:02;100665.09;;;13.22;100.00
18765;BME280;9511;54.242;12.448;2023-08-06T03:13:29;100659.81;;;13.22;100.00
18765;BME280;9511;54.242;12.448;2023-08-06T03:15:59;100658.91;;;13.23;100.00
18765;BME280;9511;54.242;12.448;2023-08-06T03:18:27;100649.19;;;13.22;100.00
18765;BME280;9511;54.242;12.448;2023-08-06T03:20:58;100650.13;;;13.25;100.00
18765;BME280;9511;54.242;12.448;2023-08-06T03:23:29;100646.59;;;13.28;100.00
18765;BME280;9511;54.242;12.448;2023-08-06T03:26:01;100645.72;;;13.29;100.00
18765;BME280;9511;54.242;12.448;2023-08-06T03:28:29;100640.41;;;13.29;100.00
18765;BME280;9511;54.242;12.448;2023-08-06T03:30:59;100648.41;;;13.31;100.00
18765;BME280;9511;54.242;12.448;2023-08-06T03:33:31;100643.06;;;13.29;100.00
18765;BME280;9511;54.242;12.448;2023-08-06T03:36:01;100641.28;;;13.29;100.00
18765;BME280;9511;54.242;12.448;2023-08-06T03:38:29;100637.72;;;13.27;100.00
18765;BME280;9511;54.242;12.448;2023-08-06T03:40:56;100633.31;;;13.28;100.00
18765;BME280;9511;54.242;12.448;2023-08-06T03:43:23;100631.56;;;13.30;100.00
18765;BME280;9511;54.242;12.448;2023-08-06T03:45:51;100630.72;;;13.33;100.00
18765;BME280;9511;54.242;12.448;2023-08-06T03:48:19;100626.25;;;13.30;100.00
18765;BME280;9511;54.242;12.448;2023-08-06T03:50:46;100623.63;;;13.32;100.00
18765;BME280;9511;54.242;12.448;2023-08-06T03:53:17;100628.94;;;13.32;100.00
18765;BME280;9511;54.242;12.448;2023-08-06T03:55:44;100628.94;;;13.33;100.00
18765;BME280;9511;54.242;12.448;2023-08-06T03:58:12;100632.50;;;13.34;100.00
18765;BME280;9511;54.242;12.448;2023-08-06T04:00:39;100615.66;;;13.33;100.00
18765;BME280;9511;54.242;12.448;2023-08-06T04:03:06;100618.31;;;13.35;100.00
18765;BME280;9511;54.242;12.448;2023-08-06T04:05:34;100620.16;;;13.37;100.00
18765;BME280;9511;54.242;12.448;2023-08-06T04:08:01;100610.41;;;13.39;100.00
18765;BME280;9511;54.242;12.448;2023-08-06T04:10:30;100609.53;;;13.42;100.00
18765;BME280;9511;54.242;12.448;2023-08-06T04:12:57;100604.28;;;13.43;100.00
18765;BME280;9511;54.242;12.448;2023-08-06T04:15:25;100598.06;;;13.44;100.00
18765;BME280;9511;54.242;12.448;2023-08-06T04:17:52;100591.94;;;13.48;100.00
18765;BME280;9511;54.242;12.448;2023-08-06T04:20:19;100586.63;;;13.53;100.00
18765;BME280;9511;54.242;12.448;2023-08-06T04:22:46;100585.78;;;13.55;100.00
18765;BME280;9511;54.242;12.448;2023-08-06T04:25:14;100582.31;;;13.60;100.00
18765;BME280;9511;54.242;12.448;2023-08-06T04:27:48;100575.22;;;13.65;100.00
18765;BME280;9511;54.242;12.448;2023-08-06T04:30:15;100576.22;;;13.73;100.00
18765;BME280;9511;54.242;12.448;2023-08-06T04:32:42;100565.63;;;13.79;100.00
18765;BME280;9511;54.242;12.448;2023-08-06T04:35:10;100563.84;;;13.78;100.00
18765;BME280;9511;54.242;12.448;2023-08-06T04:37:37;100563.00;;;13.82;100.00
18765;BME280;9511;54.242;12.448;2023-08-06T04:40:06;100556.81;;;13.85;100.00
18765;BME280;9511;54.242;12.448;2023-08-06T04:42:33;100552.44;;;13.88;100.00
18765;BME280;9511;54.242;12.448;2023-08-06T04:45:03;100548.91;;;13.92;100.00
18765;BME280;9511;54.242;12.448;2023-08-06T04:47:30;100552.53;;;14.03;100.00
18765;BME280;9511;54.242;12.448;2023-08-06T04:49:57;100559.66;;;14.07;100.00
18765;BME280;9511;54.242;12.448;2023-08-06T04:52:25;100560.59;;;14.11;100.00
18765;BME280;9511;54.242;12.448;2023-08-06T04:54:54;100559.72;;;14.12;100.00
18765;BME280;9511;54.242;12.448;2023-08-06T04:57:21;100566.81;;;14.16;100.00
18765;BME280;9511;54.242;12.448;2023-08-06T04:59:48;100559.75;;;14.20;100.00
18765;BME280;9511;54.242;12.448;2023-08-06T05:02:17;100550.03;;;14.23;100.00
18765;BME280;9511;54.242;12.448;2023-08-06T05:04:44;100549.19;;;14.32;100.00
18765;BME280;9511;54.242;12.448;2023-08-06T05:07:12;100547.47;;;14.40;100.00
18765;BME280;9511;54.242;12.448;2023-08-06T05:09:39;100552.00;;;14.49;100.00
18765;BME280;9511;54.242;12.448;2023-08-06T05:12:07;100544.03;;;14.53;100.00
18765;BME280;9511;54.242;12.448;2023-08-06T05:14:34;100537.84;;;14.62;100.00
18765;BME280;9511;54.242;12.448;2023-08-06T05:17:02;100532.59;;;14.68;100.00
18765;BME280;9511;54.242;12.448;2023-08-06T05:19:32;100529.91;;;14.73;100.00
18765;BME280;9511;54.242;12.448;2023-08-06T05:21:59;100536.16;;;14.79;100.00
18765;BME280;9511;54.242;12.448;2023-08-06T05:24:27;100529.09;;;14.83;100.00
18765;BME280;9511;54.242;12.448;2023-08-06T05:26:54;100528.22;;;14.90;100.00
18765;BME280;9511;54.242;12.448;2023-08-06T05:29:21;100525.56;;;14.93;100.00
18765;BME280;9511;54.242;12.448;2023-08-06T05:31:49;100522.03;;;14.99;100.00
18765;BME280;9511;54.242;12.448;2023-08-06T05:34:16;100519.41;;;15.03;100.00
18765;BME280;9511;54.242;12.448;2023-08-06T05:36:45;100522.94;;;15.07;100.00
18765;BME280;9511;54.242;12.448;2023-08-06T05:39:12;100510.53;;;15.09;100.00
18765;BME280;9511;54.242;12.448;2023-08-06T05:41:39;100514.09;;;15.19;100.00
18765;BME280;9511;54.242;12.448;2023-08-06T05:44:07;100511.44;;;15.25;100.00
18765;BME280;9511;54.242;12.448;2023-08-06T05:46:34;100503.44;;;15.31;100.00
18765;BME280;9511;54.242;12.448;2023-08-06T05:49:01;100504.38;;;15.44;100.00
18765;BME280;9511;54.242;12.448;2023-08-06T05:51:29;100514.16;;;15.49;100.00
18765;BME280;9511;54.242;12.448;2023-08-06T05:53:58;100503.47;;;15.54;100.00
18765;BME280;9511;54.242;12.448;2023-08-06T05:56:25;100500.84;;;15.64;100.00
18765;BME280;9511;54.242;12.448;2023-08-06T05:58:52;100501.75;;;15.76;100.00
18765;BME280;9511;54.242;12.448;2023-08-06T06:01:20;100490.19;;;15.80;100.00
18765;BME280;9511;54.242;12.448;2023-08-06T06:03:47;100496.44;;;15.83;99.70
18765;BME280;9511;54.242;12.448;2023-08-06T06:06:14;100491.97;;;15.90;100.00
18765;BME280;9511;54.242;12.448;2023-08-06T06:08:42;100487.53;;;15.92;99.31
18765;BME280;9511;54.242;12.448;2023-08-06T06:11:10;100486.63;;;16.01;99.61
18765;BME280;9511;54.242;12.448;2023-08-06T06:13:38;100489.28;;;16.05;98.63
18765;BME280;9511;54.242;12.448;2023-08-06T06:16:05;100483.06;;;16.08;98.07
18765;BME280;9511;54.242;12.448;2023-08-06T06:18:32;100474.16;;;16.18;97.73
18765;BME280;9511;54.242;12.448;2023-08-06T06:20:59;100477.66;;;16.22;97.53
18765;BME280;9511;54.242;12.448;2023-08-06T06:23:27;100470.56;;;16.24;97.22
18765;BME280;9511;54.242;12.448;2023-08-06T06:25:54;100473.19;;;16.33;96.92
18765;BME280;9511;54.242;12.448;2023-08-06T06:28:23;100469.59;;;16.40;96.27
18765;BME280;9511;54.242;12.448;2023-08-06T06:30:51;100470.50;;;16.43;95.95
18765;BME280;9511;54.242;12.448;2023-08-06T06:33:19;100460.69;;;16.50;95.65
18765;BME280;9511;54.242;12.448;2023-08-06T06:35:46;100457.09;;;16.54;94.99
18765;BME280;9511;54.242;12.448;2023-08-06T06:38:13;100455.31;;;16.59;94.91
18765;BME280;9511;54.242;12.448;2023-08-06T06:40:41;100456.19;;;16.60;95.27
18765;BME280;9511;54.242;12.448;2023-08-06T06:43:08;100456.16;;;16.73;95.00
18765;BME280;9511;54.242;12.448;2023-08-06T06:45:37;100454.38;;;16.77;94.80
18765;BME280;9511;54.242;12.448;2023-08-06T06:48:04;100454.38;;;16.72;93.89
18765;BME280;9511;54.242;12.448;2023-08-06T06:50:31;100449.03;;;16.76;93.97
18765;BME280;9511;54.242;12.448;2023-08-06T06:52:59;100461.47;;;16.81;93.63
18765;BME280;9511;54.242;12.448;2023-08-06T06:55:26;100460.59;;;16.81;93.19
18765;BME280;9511;54.242;12.448;2023-08-06T06:57:53;100460.53;;;16.85;93.28
18765;BME280;9511;54.242;12.448;2023-08-06T07:00:20;100457.84;;;16.91;93.09
18765;BME280;9511;54.242;12.448;2023-08-06T07:02:49;100466.72;;;16.99;93.18
18765;BME280;9511;54.242;12.448;2023-08-06T07:05:16;100465.78;;;17.10;92.82
18765;BME280;9511;54.242;12.448;2023-08-06T07:07:43;100465.66;;;17.25;93.44
18765;BME280;9511;54.242;12.448;2023-08-06T07:10:11;100459.31;;;17.37;93.25
18765;BME280;9511;54.242;12.448;2023-08-06T07:12:38;100458.34;;;17.47;92.58
18765;BME280;9511;54.242;12.448;2023-08-06T07:15:06;100454.72;;;17.57;91.84
18765;BME280;9511;54.242;12.448;2023-08-06T07:17:33;100453.75;;;17.64;90.34
18765;BME280;9511;54.242;12.448;2023-08-06T07:20:03;100450.16;;;17.73;90.21
18765;BME280;9511;54.242;12.448;2023-08-06T07:22:30;100448.22;;;17.90;90.09
18765;BME280;9511;54.242;12.448;2023-08-06T07:24:57;100460.56;;;18.03;89.92
18765;BME280;9511;54.242;12.448;2023-08-06T07:27:24;100450.72;;;18.07;89.35
18765;BME280;9511;54.242;12.448;2023-08-06T07:29:52;100447.00;;;18.20;89.08
18765;BME280;9511;54.242;12.448;2023-08-06T07:32:19;100443.41;;;18.21;88.05
18765;BME280;9511;54.242;12.448;2023-08-06T07:34:46;100448.75;;;18.23;87.83
18765;BME280;9511;54.242;12.448;2023-08-06T07:37:15;100448.59;;;18.37;88.23
18765;BME280;9511;54.242;12.448;2023-08-06T07:39:42;100439.47;;;18.53;88.29
18765;BME280;9511;54.242;12.448;2023-08-06T07:42:10;100438.53;;;18.55;86.91
18765;BME280;9511;54.242;12.448;2023-08-06T07:44:37;100441.19;;;18.57;85.96
18765;BME280;9511;54.242;12.448;2023-08-06T07:47:05;100441.31;;;18.48;85.16
18765;BME280;9511;54.242;12.448;2023-08-06T07:49:32;100435.09;;;18.47;85.24
18765;BME280;9511;54.242;12.448;2023-08-06T07:52:00;100435.84;;;18.55;85.14
18765;BME280;9511;54.242;12.448;2023-08-06T07:54:28;100438.44;;;18.62;84.58
18765;BME280;9511;54.242;12.448;2023-08-06T07:56:56;100435.06;;;18.49;84.33
18765;BME280;9511;54.242;12.448;2023-08-06T07:59:23;100448.56;;;18.41;84.09
18765;BME280;9511;54.242;12.448;2023-08-06T08:01:50;100436.13;;;18.36;84.12
18765;BME280;9511;54.242;12.448;2023-08-06T08:04:17;100438.66;;;18.48;84.29
18765;BME280;9511;54.242;12.448;2023-08-06T08:06:45;100443.91;;;18.55;84.50
18765;BME280;9511;54.242;12.448;2023-08-06T08:09:12;100442.00;;;18.64;84.40
18765;BME280;9511;54.242;12.448;2023-08-06T08:11:41;100439.41;;;18.59;83.39
18765;BME280;9511;54.242;12.448;2023-08-06T08:14:09;100432.28;;;18.55;83.17
18765;BME280;9511;54.242;12.448;2023-08-06T08:16:36;100432.38;;;18.49;82.48
18765;BME280;9511;54.242;12.448;2023-08-06T08:19:03;100435.19;;;18.38;82.59
18765;BME280;9511;54.242;12.448;2023-08-06T08:21:30;100432.41;;;18.47;83.53
18765;BME280;9511;54.242;12.448;2023-08-06T08:23:59;100436.91;;;18.41;83.31
18765;BME280;9511;54.242;12.448;2023-08-06T08:26:27;100427.00;;;18.49;83.40
18765;BME280;9511;54.242;12.448;2023-08-06T08:28:56;100428.88;;;18.42;82.37
18765;BME280;9511;54.242;12.448;2023-08-06T08:31:23;100429.03;;;18.28;82.54
18765;BME280;9511;54.242;12.448;2023-08-06T08:33:50;100425.41;;;18.36;83.38
18765;BME280;9511;54.242;12.448;2023-08-06T08:36:17;100428.94;;;18.38;82.90
18765;BME280;9511;54.242;12.448;2023-08-06T08:38:45;100418.25;;;18.36;82.07
18765;BME280;9511;54.242;12.448;2023-08-06T08:41:12;100427.94;;;18.48;81.68
18765;BME280;9511;54.242;12.448;2023-08-06T08:43:40;100427.00;;;18.49;81.07
18765;BME280;9511;54.242;12.448;2023-08-06T08:46:11;100423.41;;;18.53;80.73
18765;BME280;9511;54.242;12.448;2023-08-06T08:48:40;100420.63;;;18.57;81.36
18765;BME280;9511;54.242;12.448;2023-08-06T08:51:07;100421.56;;;18.58;81.49
18765;BME280;9511;54.242;12.448;2023-08-06T08:53:36;100428.53;;;18.71;82.20
18765;BME280;9511;54.242;12.448;2023-08-06T08:56:05;100421.31;;;18.78;81.01
18765;BME280;9511;54.242;12.448;2023-08-06T08:58:32;100416.94;;;18.69;80.91
18765;BME280;9511;54.242;12.448;2023-08-06T09:01:00;100416.09;;;18.66;80.14
18765;BME280;9511;54.242;12.448;2023-08-06T09:03:30;100411.56;;;18.72;80.78
18765;BME280;9511;54.242;12.448;2023-08-06T09:05:59;100406.09;;;18.81;81.20
18765;BME280;9511;54.242;12.448;2023-08-06T09:08:32;100409.66;;;18.82;80.63
18765;BME280;9511;54.242;12.448;2023-08-06T09:11:01;100399.72;;;18.89;80.39
18765;BME280;9511;54.242;12.448;2023-08-06T09:13:29;100401.38;;;18.96;79.47
18765;BME280;9511;54.242;12.448;2023-08-06T09:15:57;100395.19;;;18.94;78.83
18765;BME280;9511;54.242;12.448;2023-08-06T09:18:25;100388.91;;;18.95;78.34
18765;BME280;9511;54.242;12.448;2023-08-06T09:20:55;100381.72;;;18.98;78.49
18765;BME280;9511;54.242;12.448;2023-08-06T09:23:27;100384.47;;;18.91;78.36
18765;BME280;9511;54.242;12.448;2023-08-06T09:25:56;100382.00;;;18.78;78.30
18765;BME280;9511;54.242;12.448;2023-08-06T09:28:24;100372.91;;;18.89;79.02
18765;BME280;9511;54.242;12.448;2023-08-06T09:30:52;100374.56;;;18.99;79.25
18765;BME280;9511;54.242;12.448;2023-08-06T09:33:22;100369.94;;;19.07;79.09
18765;BME280;9511;54.242;12.448;2023-08-06T09:35:49;100368.75;;;19.25;79.17
18765;BME280;9511;54.242;12.448;2023-08-06T09:38:18;100360.59;;;19.31;78.64
18765;BME280;9511;54.242;12.448;2023-08-06T09:40:46;100368.63;;;19.32;78.85
18765;BME280;9511;54.242;12.448;2023-08-06T09:43:14;100360.84;;;19.17;77.12
18765;BME280;9511;54.242;12.448;2023-08-06T09:45:41;100361.66;;;19.22;77.51
18765;BME280;9511;54.242;12.448;2023-08-06T09:48:09;100360.88;;;19.16;77.68
18765;BME280;9511;54.242;12.448;2023-08-06T09:50:38;100354.59;;;19.15;77.15
18765;BME280;9511;54.242;12.448;2023-08-06T09:53:08;100355.50;;;19.16;76.77
18765;BME280;9511;54.242;12.448;2023-08-06T09:55:37;100351.63;;;19.32;76.90
18765;BME280;9511;54.242;12.448;2023-08-06T09:58:05;100358.84;;;19.30;76.77
18765;BME280;9511;54.242;12.448;2023-08-06T10:00:33;100347.00;;;19.42;75.58
18765;BME280;9511;54.242;12.448;2023-08-06T10:03:01;100347.94;;;19.41;75.70
18765;BME280;9511;54.242;12.448;2023-08-06T10:05:31;100347.78;;;19.48;75.57
18765;BME280;9511;54.242;12.448;2023-08-06T10:07:59;100341.63;;;19.42;74.82
18765;BME280;9511;54.242;12.448;2023-08-06T10:10:27;100343.41;;;19.43;74.10
18765;BME280;9511;54.242;12.448;2023-08-06T10:12:58;100333.56;;;19.43;73.71
18765;BME280;9511;54.242;12.448;2023-08-06T10:15:28;100336.44;;;19.34;74.66
18765;BME280;9511;54.242;12.448;2023-08-06T10:17:58;100338.81;;;19.49;75.40
18765;BME280;9511;54.242;12.448;2023-08-06T10:20:26;100334.25;;;19.56;75.42
18765;BME280;9511;54.242;12.448;2023-08-06T10:23:01;100334.44;;;19.44;75.11
18765;BME280;9511;54.242;12.448;2023-08-06T10:25:32;100334.41;;;19.47;75.66
18765;BME280;9511;54.242;12.448;2023-08-06T10:28:07;100331.75;;;19.44;75.43
18765;BME280;9511;54.242;12.448;2023-08-06T10:30:41;100329.22;;;19.36;76.30
18765;BME280;9511;54.242;12.448;2023-08-06T10:33:09;100323.94;;;19.31;76.98
18765;BME280;9511;54.242;12.448;2023-08-06T10:35:37;100324.56;;;19.47;77.03
18765;BME280;9511;54.242;12.448;2023-08-06T10:38:08;100321.91;;;19.46;76.75
18765;BME280;9511;54.242;12.448;2023-08-06T10:40:36;100314.09;;;19.33;76.06
18765;BME280;9511;54.242;12.448;2023-08-06T10:43:05;100321.34;;;19.27;75.09
18765;BME280;9511;54.242;12.448;2023-08-06T10:45:35;100321.28;;;19.30;75.10
18765;BME280;9511;54.242;12.448;2023-08-06T10:48:03;100317.78;;;19.25;74.74
18765;BME280;9511;54.242;12.448;2023-08-06T10:50:31;100315.63;;;19.47;74.32
18765;BME280;9511;54.242;12.448;2023-08-06T10:53:03;100307.81;;;19.34;74.48
18765;BME280;9511;54.242;12.448;2023-08-06T10:55:31;100304.34;;;19.26;74.71
18765;BME280;9511;54.242;12.448;2023-08-06T10:57:59;100310.53;;;19.31;74.31
18765;BME280;9511;54.242;12.448;2023-08-06T11:00:27;100307.19;;;19.19;75.24
18765;BME280;9511;54.242;12.448;2023-08-06T11:02:55;100300.78;;;19.27;75.87
18765;BME280;9511;54.242;12.448;2023-08-06T11:05:22;100307.81;;;19.34;74.92
18765;BME280;9511;54.242;12.448;2023-08-06T11:07:49;100310.34;;;19.42;75.61
18765;BME280;9511;54.242;12.448;2023-08-06T11:10:19;100297.25;;;19.24;75.14
18765;BME280;9511;54.242;12.448;2023-08-06T11:12:46;100299.78;;;19.31;75.53
18765;BME280;9511;54.242;12.448;2023-08-06T11:15:14;100298.19;;;19.23;75.57
18765;BME280;9511;54.242;12.448;2023-08-06T11:17:42;100294.75;;;19.13;75.83
18765;BME280;9511;54.242;12.448;2023-08-06T11:20:10;100295.47;;;19.24;75.78
18765;BME280;9511;54.242;12.448;2023-08-06T11:22:37;100283.94;;;19.19;75.07
18765;BME280;9511;54.242;12.448;2023-08-06T11:25:06;100291.72;;;19.34;76.28
18765;BME280;9511;54.242;12.448;2023-08-06T11:27:34;100290.09;;;19.24;76.00
18765;BME280;9511;54.242;12.448;2023-08-06T11:30:01;100301.66;;;19.28;74.80
18765;BME280;9511;54.242;12.448;2023-08-06T11:32:30;100295.25;;;19.36;75.12
18765;BME280;9511;54.242;12.448;2023-08-06T11:35:09;100290.94;;;19.26;74.91
18765;BME280;9511;54.242;12.448;2023-08-06T11:37:38;100295.53;;;19.21;74.79
18765;BME280;9511;54.242;12.448;2023-08-06T11:40:08;100290.94;;;19.28;75.34
18765;BME280;9511;54.242;12.448;2023-08-06T11:42:37;100290.25;;;19.15;75.56
18765;BME280;9511;54.242;12.448;2023-08-06T11:45:04;100294.06;;;19.02;76.14
18765;BME280;9511;54.242;12.448;2023-08-06T11:47:32;100286.97;;;18.98;76.88
18765;BME280;9511;54.242;12.448;2023-08-06T11:50:00;100288.19;;;18.78;76.96
18765;BME280;9511;54.242;12.448;2023-08-06T11:52:28;100289.00;;;18.83;77.57
18765;BME280;9511;54.242;12.448;2023-08-06T11:55:02;100289.22;;;18.71;77.70
18765;BME280;9511;54.242;12.448;2023-08-06T11:57:33;100286.69;;;18.59;77.83
18765;BME280;9511;54.242;12.448;2023-08-06T12:00:02;100293.88;;;18.55;77.85
18765;BME280;9511;54.242;12.448;2023-08-06T12:02:39;100288.75;;;18.40;77.86
18765;BME280;9511;54.242;12.448;2023-08-06T12:05:12;100284.34;;;18.36;78.78
18765;BME280;9511;54.242;12.448;2023-08-06T12:07:41;100282.69;;;18.27;79.39
18765;BME280;9511;54.242;12.448;2023-08-06T12:10:09;100282.81;;;18.18;79.30
18765;BME280;9511;54.242;12.448;2023-08-06T12:12:36;100281.19;;;18.05;79.53
18765;BME280;9511;54.242;12.448;2023-08-06T12:15:05;100268.78;;;18.01;79.02
18765;BME280;9511;54.242;12.448;2023-08-06T12:17:33;100275.03;;;18.01;79.90
18765;BME280;9511;54.242;12.448;2023-08-06T12:20:01;100270.56;;;18.02;79.66
18765;BME280;9511;54.242;12.448;2023-08-06T12:22:31;100263.34;;;18.07;79.37
18765;BME280;9511;54.242;12.448;2023-08-06T12:25:01;100264.34;;;17.98;79.55
18765;BME280;9511;54.242;12.448;2023-08-06T12:27:29;100266.91;;;18.08;80.41
18765;BME280;9511;54.242;12.448;2023-08-06T12:29:59;100256.09;;;18.15;80.72
18765;BME280;9511;54.242;12.448;2023-08-06T12:32:27;100252.53;;;18.15;79.94
18765;BME280;9511;54.242;12.448;2023-08-06T12:34:54;100245.47;;;18.09;79.96
18765;BME280;9511;54.242;12.448;2023-08-06T12:37:21;100249.09;;;18.07;79.27
18765;BME280;9511;54.242;12.448;2023-08-06T12:39:50;100242.97;;;17.94;79.45
18765;BME280;9511;54.242;12.448;2023-08-06T12:42:17;100253.78;;;17.89;79.79
18765;BME280;9511;54.242;12.448;2023-08-06T12:44:45;100247.56;;;17.86;79.45
18765;BME280;9511;54.242;12.448;2023-08-06T12:47:12;100250.34;;;17.76;79.16
18765;BME280;9511;54.242;12.448;2023-08-06T12:49:39;100244.28;;;17.59;79.81
18765;BME280;9511;54.242;12.448;2023-08-06T12:52:07;100238.03;;;17.62;79.97
18765;BME280;9511;54.242;12.448;2023-08-06T12:54:35;100241.53;;;17.65;81.00
18765;BME280;9511;54.242;12.448;2023-08-06T12:57:05;100241.41;;;17.77;81.08
18765;BME280;9511;54.242;12.448;2023-08-06T12:59:32;100238.84;;;17.65;82.13
18765;BME280;9511;54.242;12.448;2023-08-06T13:02:02;100235.63;;;17.36;82.52
18765;BME280;9511;54.242;12.448;2023-08-06T13:04:29;100236.59;;;17.30;83.50
18765;BME280;9511;54.242;12.448;2023-08-06T13:06:57;100232.97;;;17.36;83.97
18765;BME280;9511;54.242;12.448;2023-08-06T13:09:25;100231.28;;;17.29;83.40
18765;BME280;9511;54.242;12.448;2023-08-06T13:11:53;100236.75;;;17.16;83.65
18765;BME280;9511;54.242;12.448;2023-08-06T13:14:22;100223.28;;;17.24;84.21
18765;BME280;9511;54.242;12.448;2023-08-06T13:16:49;100225.00;;;17.30;84.35
18765;BME280;9511;54.242;12.448;2023-08-06T13:19:17;100220.44;;;17.41;84.15
18765;BME280;9511;54.242;12.448;2023-08-06T13:22:08;100223.22;;;17.30;84.40
18765;BME280;9511;54.242;12.448;2023-08-06T13:24:35;100221.44;;;17.31;84.64
18765;BME280;9511;54.242;12.448;2023-08-06T13:27:03;100228.47;;;17.41;84.58
18765;BME280;9511;54.242;12.448;2023-08-06T13:29:31;100226.75;;;17.34;83.95
18765;BME280;9511;54.242;12.448;2023-08-06T13:31:59;100219.44;;;17.48;85.11
18765;BME280;9511;54.242;12.448;2023-08-06T13:34:26;100222.13;;;17.49;85.84
18765;BME280;9511;54.242;12.448;2023-08-06T13:36:54;100223.19;;;17.32;86.33
18765;BME280;9511;54.242;12.448;2023-08-06T13:39:21;100230.47;;;17.19;87.96
18765;BME280;9511;54.242;12.448;2023-08-06T13:41:48;100218.13;;;17.07;88.85
18765;BME280;9511;54.242;12.448;2023-08-06T13:44:16;100217.25;;;17.05;89.19
18765;BME280;9511;54.242;12.448;2023-08-06T13:46:44;100214.63;;;17.04;89.13
18765;BME280;9511;54.242;12.448;2023-08-06T13:49:11;100225.31;;;17.01;89.15
18765;BME280;9511;54.242;12.448;2023-08-06T13:51:39;100217.50;;;16.79;89.17
18765;BME280;9511;54.242;12.448;2023-08-06T13:54:06;100219.31;;;16.77;89.92
18765;BME280;9511;54.242;12.448;2023-08-06T13:56:34;100216.66;;;16.76;90.12
18765;BME280;9511;54.242;12.448;2023-08-06T13:59:03;100218.50;;;16.64;90.54
18765;BME280;9511;54.242;12.448;2023-08-06T14:01:31;100220.38;;;16.50;90.99
18765;BME280;9511;54.242;12.448;2023-08-06T14:04:00;100226.78;;;16.26;91.50
18765;BME280;9511;54.242;12.448;2023-08-06T14:06:27;100220.66;;;16.13;92.65
18765;BME280;9511;54.242;12.448;2023-08-06T14:08:55;100224.19;;;16.15;93.27
18765;BME280;9511;54.242;12.448;2023-08-06T14:11:23;100222.50;;;15.98;94.26
18765;BME280;9511;54.242;12.448;2023-08-06T14:13:50;100226.13;;;15.87;94.71
18765;BME280;9511;54.242;12.448;2023-08-06T14:16:17;100231.47;;;15.81;95.37
18765;BME280;9511;54.242;12.448;2023-08-06T14:18:45;100225.28;;;15.76;95.49
18765;BME280;9511;54.242;12.448;2023-08-06T14:21:13;100227.09;;;15.59;95.69
18765;BME280;9511;54.242;12.448;2023-08-06T14:23:41;100220.88;;;15.61;96.35
18765;BME280;9511;54.242;12.448;2023-08-06T14:26:08;100229.75;;;15.70;97.11
18765;BME280;9511;54.242;12.448;2023-08-06T14:28:36;100220.00;;;15.56;96.75
18765;BME280;9511;54.242;12.448;2023-08-06T14:31:03;100223.63;;;15.43;95.79
18765;BME280;9511;54.242;12.448;2023-08-06T14:33:31;100225.38;;;15.50;95.60
18765;BME280;9511;54.242;12.448;2023-08-06T14:35:58;100220.91;;;15.55;95.48
18765;BME280;9511;54.242;12.448;2023-08-06T14:38:27;100225.31;;;15.59;94.91
18765;BME280;9511;54.242;12.448;2023-08-06T14:40:54;100230.69;;;15.52;94.22
18765;BME280;9511;54.242;12.448;2023-08-06T14:43:21;100228.91;;;15.66;95.16
18765;BME280;9511;54.242;12.448;2023-08-06T14:45:49;100237.75;;;15.62;95.07
18765;BME280;9511;54.242;12.448;2023-08-06T14:48:16;100230.66;;;15.59;94.91
18765;BME280;9511;54.242;12.448;2023-08-06T14:50:43;100229.78;;;15.66;95.66
18765;BME280;9511;54.242;12.448;2023-08-06T14:53:10;100233.34;;;15.67;95.39
18765;BME280;9511;54.242;12.448;2023-08-06T14:55:40;100236.03;;;15.55;95.19
18765;BME280;9511;54.242;12.448;2023-08-06T14:58:08;100236.88;;;15.64;95.71
18765;BME280;9511;54.242;12.448;2023-08-06T15:00:35;100220.00;;;15.61;96.51
18765;BME280;9511;54.242;12.448;2023-08-06T15:03:03;100234.25;;;15.52;97.05
18765;BME280;9511;54.242;12.448;2023-08-06T15:05:30;100238.66;;;15.56;97.61
18765;BME280;9511;54.242;12.448;2023-08-06T15:07:57;100235.16;;;15.45;97.34
18765;BME280;9511;54.242;12.448;2023-08-06T15:10:25;100236.94;;;15.43;97.06
18765;BME280;9511;54.242;12.448;2023-08-06T15:12:53;100237.84;;;15.44;97.11
18765;BME280;9511;54.242;12.448;2023-08-06T15:15:22;100237.81;;;15.47;97.72
18765;BME280;9511;54.242;12.448;2023-08-06T15:17:52;100240.50;;;15.39;97.10
18765;BME280;9511;54.242;12.448;2023-08-06T15:20:19;100242.28;;;15.31;97.11
18765;BME280;9511;54.242;12.448;2023-08-06T15:22:46;100245.84;;;15.39;97.75
18765;BME280;9511;54.242;12.448;2023-08-06T15:25:14;100236.94;;;15.35;97.74
18765;BME280;9511;54.242;12.448;2023-08-06T15:27:41;100240.56;;;15.21;96.59
18765;BME280;9511;54.242;12.448;2023-08-06T15:30:11;100240.53;;;15.22;96.66
18765;BME280;9511;54.242;12.448;2023-08-06T15:32:38;100236.09;;;15.24;96.75
18765;BME280;9511;54.242;12.448;2023-08-06T15:35:10;100243.19;;;15.25;97.27
18765;BME280;9511;54.242;12.448;2023-08-06T15:37:37;100236.09;;;15.24;97.50
18765;BME280;9511;54.242;12.448;2023-08-06T15:40:05;100243.19;;;15.19;96.66
18765;BME280;9511;54.242;12.448;2023-08-06T15:42:33;100242.34;;;15.16;96.27
18765;BME280;9511;54.242;12.448;2023-08-06T15:45:00;100243.22;;;15.13;95.89
18765;BME280;9511;54.242;12.448;2023-08-06T15:47:31;100240.56;;;15.11;95.77
18765;BME280;9511;54.242;12.448;2023-08-06T15:50:06;100244.09;;;15.17;96.43
18765;BME280;9511;54.242;12.448;2023-08-06T15:52:34;100245.91;;;15.05;95.99
18765;BME280;9511;54.242;12.448;2023-08-06T15:55:02;100240.56;;;15.05;95.81
18765;BME280;9511;54.242;12.448;2023-08-06T15:57:31;100240.59;;;15.08;96.21